sensor_id;sensor_type;location;lat;lon;timestamp;P1;durP1;ratioP1;P2;durP2;ratioP2
14584;SDS011;7379;51.506;11.876;2022-12-07T00:01:05;7.33;;;6.00;;
14584;SDS011;7379;51.506;11.876;2022-12-07T00:03:32;7.43;;;5.80;;
14584;SDS011;7379;51.506;11.876;2022-12-07T00:05:59;7.67;;;6.13;;
14584;SDS011;7379;51.506;11.876;2022-12-07T00:08:26;7.73;;;6.33;;
14584;SDS011;7379;51.506;11.876;2022-12-07T00:10:55;7.50;;;6.60;;
14584;SDS011;7379;51.506;11.876;2022-12-07T00:13:26;7.37;;;6.07;;
14584;SDS011;7379;51.506;11.876;2022-12-07T00:15:53;6.90;;;5.87;;
14584;SDS011;7379;51.506;11.876;2022-12-07T00:18:19;7.63;;;6.53;;
14584;SDS011;7379;51.506;11.876;2022-12-07T00:20:46;7.57;;;6.17;;
14584;SDS011;7379;51.506;11.876;2022-12-07T00:23:13;7.77;;;6.30;;
14584;SDS011;7379;51.506;11.876;2022-12-07T00:25:40;7.17;;;6.40;;
14584;SDS011;7379;51.506;11.876;2022-12-07T00:28:08;7.80;;;6.33;;
14584;SDS011;7379;51.506;11.876;2022-12-07T00:30:35;8.50;;;7.20;;
14584;SDS011;7379;51.506;11.876;2022-12-07T00:33:02;8.20;;;7.33;;
14584;SDS011;7379;51.506;11.876;2022-12-07T00:35:29;8.50;;;6.90;;
14584;SDS011;7379;51.506;11.876;2022-12-07T00:37:56;7.40;;;6.37;;
14584;SDS011;7379;51.506;11.876;2022-12-07T00:40:22;8.60;;;7.10;;
14584;SDS011;7379;51.506;11.876;2022-12-07T00:42:49;9.40;;;7.77;;
14584;SDS011;7379;51.506;11.876;2022-12-07T00:45:17;8.40;;;7.30;;
14584;SDS011;7379;51.506;11.876;2022-12-07T00:47:44;8.67;;;7.50;;
14584;SDS011;7379;51.506;11.876;2022-12-07T00:50:11;8.93;;;7.33;;
14584;SDS011;7379;51.506;11.876;2022-12-07T00:52:38;9.03;;;7.43;;
14584;SDS011;7379;51.506;11.876;2022-12-07T00:55:05;9.70;;;7.80;;
14584;SDS011;7379;51.506;11.876;2022-12-07T00:57:32;9.27;;;7.70;;
14584;SDS011;7379;51.506;11.876;2022-12-07T00:59:59;10.27;;;7.90;;
14584;SDS011;7379;51.506;11.876;2022-12-07T01:02:27;9.27;;;8.00;;
14584;SDS011;7379;51.506;11.876;2022-12-07T01:04:54;10.63;;;8.47;;
14584;SDS011;7379;51.506;11.876;2022-12-07T01:07:20;10.90;;;8.57;;
14584;SDS011;7379;51.506;11.876;2022-12-07T01:09:47;9.13;;;8.13;;
14584;SDS011;7379;51.506;11.876;2022-12-07T01:12:14;10.57;;;8.83;;
14584;SDS011;7379;51.506;11.876;2022-12-07T01:14:41;10.33;;;8.80;;
14584;SDS011;7379;51.506;11.876;2022-12-07T01:17:08;10.97;;;8.70;;
14584;SDS011;7379;51.506;11.876;2022-12-07T01:19:36;11.00;;;9.07;;
14584;SDS011;7379;51.506;11.876;2022-12-07T01:22:03;11.17;;;8.90;;
14584;SDS011;7379;51.506;11.876;2022-12-07T01:24:29;12.80;;;9.30;;
14584;SDS011;7379;51.506;11.876;2022-12-07T01:26:56;10.97;;;8.90;;
14584;SDS011;7379;51.506;11.876;2022-12-07T01:29:23;11.13;;;9.30;;
14584;SDS011;7379;51.506;11.876;2022-12-07T01:31:50;12.20;;;9.50;;
14584;SDS011;7379;51.506;11.876;2022-12-07T01:34:16;11.47;;;9.47;;
14584;SDS011;7379;51.506;11.876;2022-12-07T01:36:45;12.60;;;9.93;;
14584;SDS011;7379;51.506;11.876;2022-12-07T01:39:11;10.60;;;8.77;;
14584;SDS011;7379;51.506;11.876;2022-12-07T01:41:39;11.70;;;9.40;;
14584;SDS011;7379;51.506;11.876;2022-12-07T01:44:10;13.30;;;9.83;;
14584;SDS011;7379;51.506;11.876;2022-12-07T01:46:44;12.40;;;9.77;;
14584;SDS011;7379;51.506;11.876;2022-12-07T01:49:14;11.00;;;9.13;;
14584;SDS011;7379;51.506;11.876;2022-12-07T01:51:46;11.87;;;9.80;;
14584;SDS011;7379;51.506;11.876;2022-12-07T01:54:14;12.33;;;9.17;;
14584;SDS011;7379;51.506;11.876;2022-12-07T01:56:44;12.23;;;9.77;;
14584;SDS011;7379;51.506;11.876;2022-12-07T01:59:16;11.93;;;9.53;;
14584;SDS011;7379;51.506;11.876;2022-12-07T02:01:44;11.27;;;9.23;;
14584;SDS011;7379;51.506;11.876;2022-12-07T02:04:11;11.83;;;9.40;;
14584;SDS011;7379;51.506;11.876;2022-12-07T02:06:38;11.40;;;9.17;;
14584;SDS011;7379;51.506;11.876;2022-12-07T02:09:08;12.50;;;9.50;;
14584;SDS011;7379;51.506;11.876;2022-12-07T02:11:34;11.37;;;9.23;;
14584;SDS011;7379;51.506;11.876;2022-12-07T02:14:01;13.67;;;10.30;;
14584;SDS011;7379;51.506;11.876;2022-12-07T02:16:31;13.13;;;9.80;;
14584;SDS011;7379;51.506;11.876;2022-12-07T02:19:09;13.10;;;10.07;;
14584;SDS011;7379;51.506;11.876;2022-12-07T02:21:54;11.23;;;9.23;;
14584;SDS011;7379;51.506;11.876;2022-12-07T02:24:38;13.23;;;10.13;;
14584;SDS011;7379;51.506;11.876;2022-12-07T02:27:22;12.30;;;9.83;;
14584;SDS011;7379;51.506;11.876;2022-12-07T02:30:07;11.90;;;9.47;;
14584;SDS011;7379;51.506;11.876;2022-12-07T02:32:40;13.03;;;9.97;;
14584;SDS011;7379;51.506;11.876;2022-12-07T02:35:12;12.07;;;9.47;;
14584;SDS011;7379;51.506;11.876;2022-12-07T02:37:47;12.20;;;9.53;;
14584;SDS011;7379;51.506;11.876;2022-12-07T02:40:19;12.07;;;9.57;;
14584;SDS011;7379;51.506;11.876;2022-12-07T02:42:53;11.27;;;8.93;;
14584;SDS011;7379;51.506;11.876;2022-12-07T02:45:24;11.67;;;9.33;;
14584;SDS011;7379;51.506;11.876;2022-12-07T02:47:54;12.73;;;9.73;;
14584;SDS011;7379;51.506;11.876;2022-12-07T02:50:25;11.40;;;9.40;;
14584;SDS011;7379;51.506;11.876;2022-12-07T02:52:53;12.47;;;9.70;;
14584;SDS011;7379;51.506;11.876;2022-12-07T02:55:21;12.03;;;9.60;;
14584;SDS011;7379;51.506;11.876;2022-12-07T02:58:01;11.57;;;9.30;;
14584;SDS011;7379;51.506;11.876;2022-12-07T03:00:52;11.90;;;9.27;;
14584;SDS011;7379;51.506;11.876;2022-12-07T03:03:26;12.97;;;9.33;;
14584;SDS011;7379;51.506;11.876;2022-12-07T03:06:06;12.70;;;9.83;;
14584;SDS011;7379;51.506;11.876;2022-12-07T03:08:51;12.00;;;9.33;;
14584;SDS011;7379;51.506;11.876;2022-12-07T03:11:29;12.37;;;9.07;;
14584;SDS011;7379;51.506;11.876;2022-12-07T03:14:04;13.10;;;9.43;;
14584;SDS011;7379;51.506;11.876;2022-12-07T03:16:42;12.37;;;9.40;;
14584;SDS011;7379;51.506;11.876;2022-12-07T03:19:13;12.43;;;9.33;;
14584;SDS011;7379;51.506;11.876;2022-12-07T03:21:42;11.90;;;9.30;;
14584;SDS011;7379;51.506;11.876;2022-12-07T03:24:14;11.83;;;9.17;;
14584;SDS011;7379;51.506;11.876;2022-12-07T03:26:44;11.60;;;8.93;;
14584;SDS011;7379;51.506;11.876;2022-12-07T03:29:17;10.97;;;8.80;;
14584;SDS011;7379;51.506;11.876;2022-12-07T03:31:48;11.43;;;9.03;;
14584;SDS011;7379;51.506;11.876;2022-12-07T03:34:21;12.00;;;9.17;;
14584;SDS011;7379;51.506;11.876;2022-12-07T03:36:54;10.60;;;8.57;;
14584;SDS011;7379;51.506;11.876;2022-12-07T03:39:26;12.80;;;9.10;;
14584;SDS011;7379;51.506;11.876;2022-12-07T03:41:58;11.93;;;9.20;;
14584;SDS011;7379;51.506;11.876;2022-12-07T03:44:27;11.50;;;8.77;;
14584;SDS011;7379;51.506;11.876;2022-12-07T03:46:58;13.43;;;9.07;;
14584;SDS011;7379;51.506;11.876;2022-12-07T03:49:31;11.40;;;8.50;;
14584;SDS011;7379;51.506;11.876;2022-12-07T03:52:05;10.03;;;8.13;;
14584;SDS011;7379;51.506;11.876;2022-12-07T03:54:39;11.23;;;8.60;;
14584;SDS011;7379;51.506;11.876;2022-12-07T03:57:10;10.50;;;8.47;;
14584;SDS011;7379;51.506;11.876;2022-12-07T03:59:38;11.60;;;8.80;;
14584;SDS011;7379;51.506;11.876;2022-12-07T04:02:08;12.20;;;9.00;;
14584;SDS011;7379;51.506;11.876;2022-12-07T04:04:38;11.10;;;8.33;;
14584;SDS011;7379;51.506;11.876;2022-12-07T04:07:05;10.83;;;8.80;;
14584;SDS011;7379;51.506;11.876;2022-12-07T04:09:32;10.43;;;8.30;;
14584;SDS011;7379;51.506;11.876;2022-12-07T04:11:58;10.37;;;8.40;;
14584;SDS011;7379;51.506;11.876;2022-12-07T04:14:25;12.30;;;9.47;;
14584;SDS011;7379;51.506;11.876;2022-12-07T04:16:53;10.63;;;8.47;;
14584;SDS011;7379;51.506;11.876;2022-12-07T04:19:24;10.03;;;8.20;;
14584;SDS011;7379;51.506;11.876;2022-12-07T04:21:52;10.73;;;8.40;;
14584;SDS011;7379;51.506;11.876;2022-12-07T04:24:19;10.33;;;8.23;;
14584;SDS011;7379;51.506;11.876;2022-12-07T04:26:46;10.13;;;8.20;;
14584;SDS011;7379;51.506;11.876;2022-12-07T04:29:13;12.07;;;8.63;;
14584;SDS011;7379;51.506;11.876;2022-12-07T04:31:41;10.40;;;8.13;;
14584;SDS011;7379;51.506;11.876;2022-12-07T04:34:08;10.87;;;8.00;;
14584;SDS011;7379;51.506;11.876;2022-12-07T04:36:37;10.43;;;8.00;;
14584;SDS011;7379;51.506;11.876;2022-12-07T04:39:05;10.17;;;7.90;;
14584;SDS011;7379;51.506;11.876;2022-12-07T04:41:33;10.57;;;7.70;;
14584;SDS011;7379;51.506;11.876;2022-12-07T04:44:01;10.00;;;7.63;;
14584;SDS011;7379;51.506;11.876;2022-12-07T04:49:51;8.93;;;7.47;;
14584;SDS011;7379;51.506;11.876;2022-12-07T04:52:19;10.00;;;7.67;;
14584;SDS011;7379;51.506;11.876;2022-12-07T04:54:46;9.23;;;7.67;;
14584;SDS011;7379;51.506;11.876;2022-12-07T04:57:12;9.33;;;7.63;;
14584;SDS011;7379;51.506;11.876;2022-12-07T04:59:39;9.50;;;7.30;;
14584;SDS011;7379;51.506;11.876;2022-12-07T05:02:06;10.37;;;7.37;;
14584;SDS011;7379;51.506;11.876;2022-12-07T05:04:33;9.67;;;7.33;;
14584;SDS011;7379;51.506;11.876;2022-12-07T05:06:59;9.67;;;7.50;;
14584;SDS011;7379;51.506;11.876;2022-12-07T05:09:27;8.97;;;7.40;;
14584;SDS011;7379;51.506;11.876;2022-12-07T05:11:54;9.80;;;7.43;;
14584;SDS011;7379;51.506;11.876;2022-12-07T05:14:21;9.83;;;7.33;;
14584;SDS011;7379;51.506;11.876;2022-12-07T05:16:48;8.90;;;7.23;;
14584;SDS011;7379;51.506;11.876;2022-12-07T05:19:16;9.73;;;7.57;;
14584;SDS011;7379;51.506;11.876;2022-12-07T05:21:44;8.53;;;7.30;;
14584;SDS011;7379;51.506;11.876;2022-12-07T05:24:11;9.37;;;7.70;;
14584;SDS011;7379;51.506;11.876;2022-12-07T05:26:41;8.93;;;7.57;;
14584;SDS011;7379;51.506;11.876;2022-12-07T05:29:10;8.67;;;7.33;;
14584;SDS011;7379;51.506;11.876;2022-12-07T05:31:37;8.63;;;7.23;;
14584;SDS011;7379;51.506;11.876;2022-12-07T05:34:04;9.53;;;8.27;;
14584;SDS011;7379;51.506;11.876;2022-12-07T05:36:31;8.67;;;7.77;;
14584;SDS011;7379;51.506;11.876;2022-12-07T05:38:58;9.17;;;8.07;;
14584;SDS011;7379;51.506;11.876;2022-12-07T05:41:25;9.50;;;7.87;;
14584;SDS011;7379;51.506;11.876;2022-12-07T05:44:10;11.77;;;8.33;;
14584;SDS011;7379;51.506;11.876;2022-12-07T05:46:37;9.63;;;7.83;;
14584;SDS011;7379;51.506;11.876;2022-12-07T05:49:04;10.50;;;7.93;;
14584;SDS011;7379;51.506;11.876;2022-12-07T05:51:31;8.50;;;7.53;;
14584;SDS011;7379;51.506;11.876;2022-12-07T05:53:58;9.73;;;7.87;;
14584;SDS011;7379;51.506;11.876;2022-12-07T05:56:24;9.27;;;8.30;;
14584;SDS011;7379;51.506;11.876;2022-12-07T05:58:52;9.10;;;8.17;;
14584;SDS011;7379;51.506;11.876;2022-12-07T06:01:37;9.30;;;8.20;;
14584;SDS011;7379;51.506;11.876;2022-12-07T06:04:04;8.67;;;7.63;;
14584;SDS011;7379;51.506;11.876;2022-12-07T06:06:31;9.20;;;8.30;;
14584;SDS011;7379;51.506;11.876;2022-12-07T06:08:57;9.77;;;8.57;;
14584;SDS011;7379;51.506;11.876;2022-12-07T06:11:24;9.70;;;8.40;;
14584;SDS011;7379;51.506;11.876;2022-12-07T06:14:08;10.43;;;8.53;;
14584;SDS011;7379;51.506;11.876;2022-12-07T06:16:35;9.43;;;8.27;;
14584;SDS011;7379;51.506;11.876;2022-12-07T06:19:03;8.90;;;7.97;;
14584;SDS011;7379;51.506;11.876;2022-12-07T06:21:30;8.77;;;7.83;;
14584;SDS011;7379;51.506;11.876;2022-12-07T06:23:57;9.80;;;8.30;;
14584;SDS011;7379;51.506;11.876;2022-12-07T06:26:24;10.37;;;9.07;;
14584;SDS011;7379;51.506;11.876;2022-12-07T06:28:50;9.73;;;8.60;;
14584;SDS011;7379;51.506;11.876;2022-12-07T06:31:17;10.43;;;8.57;;
14584;SDS011;7379;51.506;11.876;2022-12-07T06:33:45;9.97;;;8.63;;
14584;SDS011;7379;51.506;11.876;2022-12-07T06:36:12;10.30;;;8.80;;
14584;SDS011;7379;51.506;11.876;2022-12-07T06:38:39;10.17;;;9.10;;
14584;SDS011;7379;51.506;11.876;2022-12-07T06:41:06;10.73;;;8.83;;
14584;SDS011;7379;51.506;11.876;2022-12-07T06:43:33;12.27;;;10.30;;
14584;SDS011;7379;51.506;11.876;2022-12-07T06:46:00;11.23;;;10.03;;
14584;SDS011;7379;51.506;11.876;2022-12-07T06:48:26;13.57;;;11.10;;
14584;SDS011;7379;51.506;11.876;2022-12-07T06:50:55;14.47;;;11.53;;
14584;SDS011;7379;51.506;11.876;2022-12-07T06:53:21;15.43;;;12.50;;
14584;SDS011;7379;51.506;11.876;2022-12-07T06:55:49;13.47;;;11.27;;
14584;SDS011;7379;51.506;11.876;2022-12-07T06:58:16;14.63;;;11.70;;
14584;SDS011;7379;51.506;11.876;2022-12-07T07:00:43;14.20;;;10.63;;
14584;SDS011;7379;51.506;11.876;2022-12-07T07:03:11;13.37;;;11.17;;
14584;SDS011;7379;51.506;11.876;2022-12-07T07:05:38;12.67;;;11.07;;
14584;SDS011;7379;51.506;11.876;2022-12-07T07:08:06;15.93;;;11.20;;
14584;SDS011;7379;51.506;11.876;2022-12-07T07:10:33;13.73;;;10.40;;
14584;SDS011;7379;51.506;11.876;2022-12-07T07:13:00;13.70;;;10.63;;
14584;SDS011;7379;51.506;11.876;2022-12-07T07:15:27;14.63;;;10.73;;
14584;SDS011;7379;51.506;11.876;2022-12-07T07:17:54;11.37;;;10.00;;
14584;SDS011;7379;51.506;11.876;2022-12-07T07:20:21;12.43;;;10.17;;
14584;SDS011;7379;51.506;11.876;2022-12-07T07:22:48;12.70;;;10.23;;
14584;SDS011;7379;51.506;11.876;2022-12-07T07:25:17;12.23;;;10.27;;
14584;SDS011;7379;51.506;11.876;2022-12-07T07:27:43;11.30;;;9.53;;
14584;SDS011;7379;51.506;11.876;2022-12-07T07:30:10;12.97;;;10.40;;
14584;SDS011;7379;51.506;11.876;2022-12-07T07:32:38;12.17;;;9.83;;
14584;SDS011;7379;51.506;11.876;2022-12-07T07:35:05;13.57;;;10.03;;
14584;SDS011;7379;51.506;11.876;2022-12-07T07:37:32;11.83;;;9.87;;
14584;SDS011;7379;51.506;11.876;2022-12-07T07:39:59;12.83;;;10.03;;
14584;SDS011;7379;51.506;11.876;2022-12-07T07:42:27;13.07;;;10.13;;
14584;SDS011;7379;51.506;11.876;2022-12-07T07:44:54;12.33;;;9.50;;
14584;SDS011;7379;51.506;11.876;2022-12-07T07:47:20;11.63;;;10.03;;
14584;SDS011;7379;51.506;11.876;2022-12-07T07:49:47;12.63;;;10.77;;
14584;SDS011;7379;51.506;11.876;2022-12-07T07:52:14;12.07;;;10.07;;
14584;SDS011;7379;51.506;11.876;2022-12-07T07:54:41;14.73;;;10.43;;
14584;SDS011;7379;51.506;11.876;2022-12-07T07:57:07;12.07;;;9.90;;
14584;SDS011;7379;51.506;11.876;2022-12-07T07:59:35;13.30;;;10.03;;
14584;SDS011;7379;51.506;11.876;2022-12-07T08:02:02;11.93;;;10.37;;
14584;SDS011;7379;51.506;11.876;2022-12-07T08:04:29;13.43;;;9.90;;
14584;SDS011;7379;51.506;11.876;2022-12-07T08:06:56;13.10;;;10.00;;
14584;SDS011;7379;51.506;11.876;2022-12-07T08:09:23;11.13;;;9.40;;
14584;SDS011;7379;51.506;11.876;2022-12-07T08:11:49;9.80;;;8.53;;
14584;SDS011;7379;51.506;11.876;2022-12-07T08:14:16;11.67;;;9.47;;
14584;SDS011;7379;51.506;11.876;2022-12-07T08:16:44;11.43;;;9.30;;
14584;SDS011;7379;51.506;11.876;2022-12-07T08:19:11;11.47;;;9.50;;
14584;SDS011;7379;51.506;11.876;2022-12-07T08:21:38;11.90;;;9.07;;
14584;SDS011;7379;51.506;11.876;2022-12-07T08:24:05;10.83;;;8.73;;
14584;SDS011;7379;51.506;11.876;2022-12-07T08:26:32;10.67;;;8.63;;
14584;SDS011;7379;51.506;11.876;2022-12-07T08:28:59;10.10;;;8.57;;
14584;SDS011;7379;51.506;11.876;2022-12-07T08:31:26;10.53;;;8.73;;
14584;SDS011;7379;51.506;11.876;2022-12-07T08:33:55;13.07;;;9.77;;
14584;SDS011;7379;51.506;11.876;2022-12-07T08:36:22;12.37;;;9.40;;
14584;SDS011;7379;51.506;11.876;2022-12-07T08:38:49;12.17;;;9.67;;
14584;SDS011;7379;51.506;11.876;2022-12-07T08:41:16;11.43;;;8.90;;
14584;SDS011;7379;51.506;11.876;2022-12-07T08:43:43;11.80;;;9.33;;
14584;SDS011;7379;51.506;11.876;2022-12-07T08:46:10;11.50;;;9.37;;
14584;SDS011;7379;51.506;11.876;2022-12-07T08:48:44;12.43;;;9.57;;
14584;SDS011;7379;51.506;11.876;2022-12-07T08:51:17;11.70;;;9.37;;
14584;SDS011;7379;51.506;11.876;2022-12-07T08:53:44;12.07;;;9.50;;
14584;SDS011;7379;51.506;11.876;2022-12-07T08:56:11;10.53;;;8.57;;
14584;SDS011;7379;51.506;11.876;2022-12-07T08:58:38;12.37;;;8.90;;
14584;SDS011;7379;51.506;11.876;2022-12-07T09:01:05;11.40;;;8.80;;
14584;SDS011;7379;51.506;11.876;2022-12-07T09:03:32;11.27;;;8.70;;
14584;SDS011;7379;51.506;11.876;2022-12-07T09:05:59;12.50;;;8.40;;
14584;SDS011;7379;51.506;11.876;2022-12-07T09:08:29;11.53;;;7.57;;
14584;SDS011;7379;51.506;11.876;2022-12-07T09:10:59;10.20;;;7.47;;
14584;SDS011;7379;51.506;11.876;2022-12-07T09:13:26;10.07;;;7.43;;
14584;SDS011;7379;51.506;11.876;2022-12-07T09:15:53;8.60;;;6.80;;
14584;SDS011;7379;51.506;11.876;2022-12-07T09:18:20;11.57;;;7.50;;
14584;SDS011;7379;51.506;11.876;2022-12-07T09:20:47;9.03;;;6.93;;
14584;SDS011;7379;51.506;11.876;2022-12-07T09:23:14;9.93;;;8.07;;
14584;SDS011;7379;51.506;11.876;2022-12-07T09:25:42;8.83;;;7.43;;
14584;SDS011;7379;51.506;11.876;2022-12-07T09:28:09;10.57;;;7.80;;
14584;SDS011;7379;51.506;11.876;2022-12-07T09:30:35;10.60;;;8.00;;
14584;SDS011;7379;51.506;11.876;2022-12-07T09:33:02;10.40;;;8.50;;
14584;SDS011;7379;51.506;11.876;2022-12-07T09:35:29;9.67;;;8.00;;
14584;SDS011;7379;51.506;11.876;2022-12-07T09:37:56;11.03;;;8.43;;
14584;SDS011;7379;51.506;11.876;2022-12-07T09:40:22;11.47;;;8.70;;
14584;SDS011;7379;51.506;11.876;2022-12-07T09:42:52;11.03;;;9.13;;
14584;SDS011;7379;51.506;11.876;2022-12-07T09:45:22;10.77;;;8.90;;
14584;SDS011;7379;51.506;11.876;2022-12-07T09:47:51;11.30;;;9.20;;
14584;SDS011;7379;51.506;11.876;2022-12-07T09:50:19;11.90;;;8.87;;
14584;SDS011;7379;51.506;11.876;2022-12-07T09:52:49;11.77;;;8.83;;
14584;SDS011;7379;51.506;11.876;2022-12-07T09:55:17;10.60;;;8.23;;
14584;SDS011;7379;51.506;11.876;2022-12-07T09:57:51;13.17;;;8.43;;
14584;SDS011;7379;51.506;11.876;2022-12-07T10:00:19;12.37;;;9.00;;
14584;SDS011;7379;51.506;11.876;2022-12-07T10:02:48;11.17;;;8.77;;
14584;SDS011;7379;51.506;11.876;2022-12-07T10:05:18;10.93;;;8.50;;
14584;SDS011;7379;51.506;11.876;2022-12-07T10:07:50;12.37;;;8.90;;
14584;SDS011;7379;51.506;11.876;2022-12-07T10:10:17;10.50;;;8.63;;
14584;SDS011;7379;51.506;11.876;2022-12-07T10:12:55;11.20;;;7.80;;
14584;SDS011;7379;51.506;11.876;2022-12-07T10:15:36;12.93;;;8.57;;
14584;SDS011;7379;51.506;11.876;2022-12-07T10:18:19;11.03;;;8.27;;
14584;SDS011;7379;51.506;11.876;2022-12-07T10:20:47;10.33;;;7.80;;
14584;SDS011;7379;51.506;11.876;2022-12-07T10:23:15;10.10;;;7.67;;
14584;SDS011;7379;51.506;11.876;2022-12-07T10:25:43;12.00;;;7.97;;
14584;SDS011;7379;51.506;11.876;2022-12-07T10:28:14;9.70;;;7.60;;
14584;SDS011;7379;51.506;11.876;2022-12-07T10:30:47;10.40;;;7.70;;
14584;SDS011;7379;51.506;11.876;2022-12-07T10:33:27;9.00;;;7.30;;
14584;SDS011;7379;51.506;11.876;2022-12-07T10:35:55;9.93;;;7.43;;
14584;SDS011;7379;51.506;11.876;2022-12-07T10:38:22;9.30;;;6.67;;
14584;SDS011;7379;51.506;11.876;2022-12-07T10:41:02;10.60;;;6.50;;
14584;SDS011;7379;51.506;11.876;2022-12-07T10:43:32;7.87;;;6.47;;
14584;SDS011;7379;51.506;11.876;2022-12-07T10:46:17;8.40;;;6.33;;
14584;SDS011;7379;51.506;11.876;2022-12-07T10:48:55;8.17;;;6.17;;
14584;SDS011;7379;51.506;11.876;2022-12-07T10:51:30;7.27;;;5.70;;
14584;SDS011;7379;51.506;11.876;2022-12-07T10:54:04;7.53;;;5.67;;
14584;SDS011;7379;51.506;11.876;2022-12-07T10:56:53;8.17;;;5.77;;
14584;SDS011;7379;51.506;11.876;2022-12-07T10:59:36;7.47;;;5.53;;
14584;SDS011;7379;51.506;11.876;2022-12-07T11:02:22;7.87;;;5.70;;
14584;SDS011;7379;51.506;11.876;2022-12-07T11:04:58;7.83;;;5.87;;
14584;SDS011;7379;51.506;11.876;2022-12-07T11:07:37;8.90;;;5.97;;
14584;SDS011;7379;51.506;11.876;2022-12-07T11:10:12;8.40;;;6.53;;
14584;SDS011;7379;51.506;11.876;2022-12-07T11:12:47;8.67;;;6.43;;
14584;SDS011;7379;51.506;11.876;2022-12-07T11:15:33;10.37;;;6.17;;
14584;SDS011;7379;51.506;11.876;2022-12-07T11:18:09;10.13;;;6.67;;
14584;SDS011;7379;51.506;11.876;2022-12-07T11:20:42;7.50;;;6.40;;
14584;SDS011;7379;51.506;11.876;2022-12-07T11:23:21;7.90;;;6.30;;
14584;SDS011;7379;51.506;11.876;2022-12-07T11:26:07;7.77;;;6.07;;
14584;SDS011;7379;51.506;11.876;2022-12-07T11:28:51;7.70;;;5.77;;
14584;SDS011;7379;51.506;11.876;2022-12-07T11:31:35;9.10;;;6.07;;
14584;SDS011;7379;51.506;11.876;2022-12-07T11:34:13;8.97;;;5.30;;
14584;SDS011;7379;51.506;11.876;2022-12-07T11:36:45;7.10;;;5.33;;
14584;SDS011;7379;51.506;11.876;2022-12-07T11:39:16;7.03;;;5.60;;
14584;SDS011;7379;51.506;11.876;2022-12-07T11:41:50;8.60;;;5.30;;
14584;SDS011;7379;51.506;11.876;2022-12-07T11:44:25;7.37;;;5.07;;
14584;SDS011;7379;51.506;11.876;2022-12-07T11:47:00;6.70;;;5.13;;
14584;SDS011;7379;51.506;11.876;2022-12-07T11:49:37;5.90;;;4.80;;
14584;SDS011;7379;51.506;11.876;2022-12-07T11:52:11;4.77;;;4.27;;
14584;SDS011;7379;51.506;11.876;2022-12-07T11:54:45;4.97;;;4.10;;
14584;SDS011;7379;51.506;11.876;2022-12-07T11:57:15;6.63;;;4.20;;
14584;SDS011;7379;51.506;11.876;2022-12-07T11:59:47;5.63;;;4.23;;
14584;SDS011;7379;51.506;11.876;2022-12-07T12:02:20;6.07;;;4.20;;
14584;SDS011;7379;51.506;11.876;2022-12-07T12:04:51;5.77;;;3.97;;
14584;SDS011;7379;51.506;11.876;2022-12-07T12:07:22;5.83;;;4.23;;
14584;SDS011;7379;51.506;11.876;2022-12-07T12:09:52;5.30;;;4.27;;
14584;SDS011;7379;51.506;11.876;2022-12-07T12:12:27;4.03;;;3.63;;
14584;SDS011;7379;51.506;11.876;2022-12-07T12:15:13;6.00;;;4.10;;
14584;SDS011;7379;51.506;11.876;2022-12-07T12:18:02;7.43;;;4.60;;
14584;SDS011;7379;51.506;11.876;2022-12-07T12:20:48;6.10;;;4.30;;
14584;SDS011;7379;51.506;11.876;2022-12-07T12:23:18;6.20;;;3.80;;
14584;SDS011;7379;51.506;11.876;2022-12-07T12:25:49;4.00;;;3.70;;
14584;SDS011;7379;51.506;11.876;2022-12-07T12:28:19;5.43;;;3.80;;
14584;SDS011;7379;51.506;11.876;2022-12-07T12:31:05;5.70;;;3.80;;
14584;SDS011;7379;51.506;11.876;2022-12-07T12:33:36;4.20;;;3.67;;
14584;SDS011;7379;51.506;11.876;2022-12-07T12:36:17;4.77;;;3.80;;
14584;SDS011;7379;51.506;11.876;2022-12-07T12:38:50;3.63;;;3.33;;
14584;SDS011;7379;51.506;11.876;2022-12-07T12:41:52;5.13;;;3.53;;
14584;SDS011;7379;51.506;11.876;2022-12-07T12:44:42;4.30;;;3.50;;
14584;SDS011;7379;51.506;11.876;2022-12-07T12:47:51;3.67;;;3.20;;
14584;SDS011;7379;51.506;11.876;2022-12-07T12:53:44;7.20;;;3.57;;
14584;SDS011;7379;51.506;11.876;2022-12-07T12:56:28;4.00;;;3.40;;
14584;SDS011;7379;51.506;11.876;2022-12-07T13:01:56;3.87;;;3.20;;
14584;SDS011;7379;51.506;11.876;2022-12-07T13:04:39;3.50;;;3.00;;
14584;SDS011;7379;51.506;11.876;2022-12-07T13:10:31;3.63;;;2.60;;
14584;SDS011;7379;51.506;11.876;2022-12-07T13:13:03;4.07;;;3.20;;
14584;SDS011;7379;51.506;11.876;2022-12-07T13:15:51;5.93;;;3.43;;
14584;SDS011;7379;51.506;11.876;2022-12-07T13:18:22;3.93;;;3.00;;
14584;SDS011;7379;51.506;11.876;2022-12-07T13:20:54;5.67;;;3.43;;
14584;SDS011;7379;51.506;11.876;2022-12-07T13:23:29;3.67;;;3.10;;
14584;SDS011;7379;51.506;11.876;2022-12-07T13:28:43;4.10;;;3.17;;
14584;SDS011;7379;51.506;11.876;2022-12-07T13:31:18;4.50;;;3.20;;
14584;SDS011;7379;51.506;11.876;2022-12-07T13:33:51;3.70;;;3.30;;
14584;SDS011;7379;51.506;11.876;2022-12-07T13:36:19;3.93;;;3.40;;
14584;SDS011;7379;51.506;11.876;2022-12-07T13:38:49;5.70;;;3.20;;
14584;SDS011;7379;51.506;11.876;2022-12-07T13:41:20;5.23;;;3.23;;
14584;SDS011;7379;51.506;11.876;2022-12-07T13:46:40;4.27;;;3.17;;
14584;SDS011;7379;51.506;11.876;2022-12-07T13:49:21;3.93;;;3.53;;
14584;SDS011;7379;51.506;11.876;2022-12-07T13:51:49;5.10;;;3.40;;
14584;SDS011;7379;51.506;11.876;2022-12-07T13:54:16;4.03;;;3.43;;
14584;SDS011;7379;51.506;11.876;2022-12-07T13:56:46;5.17;;;3.50;;
14584;SDS011;7379;51.506;11.876;2022-12-07T13:59:16;4.37;;;3.20;;
14584;SDS011;7379;51.506;11.876;2022-12-07T14:01:45;3.33;;;3.00;;
14584;SDS011;7379;51.506;11.876;2022-12-07T14:04:17;4.33;;;3.23;;
14584;SDS011;7379;51.506;11.876;2022-12-07T14:06:49;4.20;;;3.27;;
14584;SDS011;7379;51.506;11.876;2022-12-07T14:09:17;5.10;;;3.27;;
14584;SDS011;7379;51.506;11.876;2022-12-07T14:11:47;4.40;;;3.30;;
14584;SDS011;7379;51.506;11.876;2022-12-07T14:14:16;4.77;;;3.30;;
14584;SDS011;7379;51.506;11.876;2022-12-07T14:16:55;3.77;;;3.20;;
14584;SDS011;7379;51.506;11.876;2022-12-07T14:19:43;5.03;;;3.40;;
14584;SDS011;7379;51.506;11.876;2022-12-07T14:22:18;5.60;;;3.10;;
14584;SDS011;7379;51.506;11.876;2022-12-07T14:24:50;3.33;;;3.00;;
14584;SDS011;7379;51.506;11.876;2022-12-07T14:27:29;4.33;;;3.10;;
14584;SDS011;7379;51.506;11.876;2022-12-07T14:29:58;4.87;;;3.10;;
14584;SDS011;7379;51.506;11.876;2022-12-07T14:32:26;8.87;;;3.50;;
14584;SDS011;7379;51.506;11.876;2022-12-07T14:34:58;48.77;;;5.87;;
14584;SDS011;7379;51.506;11.876;2022-12-07T14:37:27;27.30;;;5.03;;
14584;SDS011;7379;51.506;11.876;2022-12-07T14:39:54;35.53;;;5.73;;
14584;SDS011;7379;51.506;11.876;2022-12-07T14:42:22;22.17;;;4.70;;
14584;SDS011;7379;51.506;11.876;2022-12-07T14:44:53;26.97;;;5.33;;
14584;SDS011;7379;51.506;11.876;2022-12-07T14:47:22;22.70;;;5.10;;
14584;SDS011;7379;51.506;11.876;2022-12-07T14:49:49;18.83;;;5.07;;
14584;SDS011;7379;51.506;11.876;2022-12-07T14:52:16;16.47;;;4.20;;
14584;SDS011;7379;51.506;11.876;2022-12-07T14:54:45;19.13;;;5.23;;
14584;SDS011;7379;51.506;11.876;2022-12-07T14:57:12;21.07;;;5.00;;
14584;SDS011;7379;51.506;11.876;2022-12-07T14:59:40;11.73;;;4.37;;
14584;SDS011;7379;51.506;11.876;2022-12-07T15:02:09;11.37;;;3.87;;
14584;SDS011;7379;51.506;11.876;2022-12-07T15:04:37;15.00;;;4.60;;
14584;SDS011;7379;51.506;11.876;2022-12-07T15:07:04;11.40;;;5.07;;
14584;SDS011;7379;51.506;11.876;2022-12-07T15:09:32;11.37;;;5.67;;
14584;SDS011;7379;51.506;11.876;2022-12-07T15:11:59;12.73;;;5.63;;
14584;SDS011;7379;51.506;11.876;2022-12-07T15:14:25;10.30;;;5.63;;
14584;SDS011;7379;51.506;11.876;2022-12-07T15:16:54;9.07;;;5.67;;